createdAt,value
2018-04-19T00:00:44.424Z,0.00
2018-04-19T00:01:44.413Z,0.00
2018-04-19T00:02:44.401Z,0.00
2018-04-19T00:03:44.396Z,0.00
2018-04-19T00:04:44.380Z,0.00
2018-04-19T00:05:44.369Z,0.00
2018-04-19T00:06:44.367Z,0.00
2018-04-19T00:07:44.356Z,0.00
2018-04-19T00:08:44.334Z,0.00
2018-04-19T00:09:44.326Z,0.00
2018-04-19T00:10:44.314Z,0.00
2018-04-19T00:11:44.308Z,0.00
2018-04-19T00:12:44.291Z,0.00
2018-04-19T00:13:44.277Z,0.00
2018-04-19T00:14:44.273Z,0.00
2018-04-19T00:15:44.256Z,0.00
2018-04-19T00:16:44.242Z,0.00
2018-04-19T00:17:44.232Z,0.00
2018-04-19T00:18:44.226Z,0.00
2018-04-19T00:19:44.212Z,0.00
2018-04-19T00:20:44.219Z,0.00
2018-04-19T00:21:44.188Z,0.00
2018-04-19T00:22:44.173Z,0.00
2018-04-19T00:23:44.164Z,0.00
2018-04-19T00:24:44.162Z,0.00
2018-04-19T00:25:44.148Z,0.00
2018-04-19T00:26:44.132Z,0.00
2018-04-19T00:27:44.121Z,0.00
2018-04-19T00:28:44.163Z,0.00
2018-04-19T00:29:44.102Z,0.00
2018-04-19T00:30:44.088Z,0.00
2018-04-19T00:31:44.072Z,0.00
2018-04-19T00:32:44.072Z,0.00
2018-04-19T00:33:44.055Z,0.00
2018-04-19T00:34:44.041Z,0.00
2018-04-19T00:35:44.027Z,0.00
2018-04-19T00:36:44.014Z,0.00
2018-04-19T00:37:44.006Z,0.00
2018-04-19T00:38:43.994Z,0.00
2018-04-19T00:39:43.984Z,0.00
2018-04-19T00:40:43.973Z,0.00
2018-04-19T00:41:43.961Z,0.00
2018-04-19T00:42:43.953Z,0.00
2018-04-19T00:43:43.942Z,0.00
2018-04-19T00:44:43.923Z,0.00
2018-04-19T00:45:43.914Z,0.00
2018-04-19T00:46:43.903Z,0.00
2018-04-19T00:47:43.893Z,0.00
2018-04-19T00:48:43.877Z,0.00
2018-04-19T00:49:43.872Z,0.00
2018-04-19T00:50:43.852Z,0.00
2018-04-19T00:51:43.866Z,0.00
2018-04-19T00:52:43.830Z,0.00
2018-04-19T00:53:43.824Z,0.00
2018-04-19T00:54:43.807Z,0.00
2018-04-19T00:55:43.895Z,0.00
2018-04-19T00:56:43.783Z,0.00
2018-04-19T00:57:43.779Z,0.00
2018-04-19T00:58:43.763Z,0.00
2018-04-19T00:59:43.848Z,0.00
2018-04-19T01:00:43.744Z,0.00
2018-04-19T01:01:43.830Z,0.00
2018-04-19T01:02:43.715Z,0.00
2018-04-19T01:03:43.753Z,0.00
2018-04-19T01:04:43.694Z,0.00
2018-04-19T01:05:43.783Z,0.00
2018-04-19T01:06:43.671Z,0.00
2018-04-19T01:07:43.661Z,0.00
2018-04-19T01:08:43.650Z,0.00
2018-04-19T01:09:43.640Z,0.00
2018-04-19T01:10:43.630Z,0.00
2018-04-19T01:11:43.614Z,0.00
2018-04-19T01:12:43.607Z,0.00
2018-04-19T01:13:43.592Z,0.00
2018-04-19T01:14:43.575Z,0.00
2018-04-19T01:15:43.563Z,0.00
2018-04-19T01:16:43.556Z,0.00
2018-04-19T01:17:43.539Z,0.00
2018-04-19T01:18:43.536Z,0.00
2018-04-19T01:19:43.525Z,0.00
2018-04-19T01:20:43.504Z,0.00
2018-04-19T01:21:43.492Z,0.00
2018-04-19T01:22:43.483Z,0.00
2018-04-19T01:23:43.472Z,0.00
2018-04-19T01:24:43.464Z,0.00
2018-04-19T01:25:43.446Z,0.00
2018-04-19T01:26:43.435Z,0.00
2018-04-19T01:27:43.425Z,0.00
2018-04-19T01:28:43.413Z,0.00
2018-04-19T01:29:43.404Z,0.00
2018-04-19T01:30:43.385Z,0.00
2018-04-19T01:31:43.375Z,0.00
2018-04-19T01:32:43.365Z,0.00
2018-04-19T01:33:43.353Z,0.00
2018-04-19T01:34:43.344Z,0.00
2018-04-19T01:35:43.336Z,0.00
2018-04-19T01:36:43.314Z,0.00
2018-04-19T01:37:43.303Z,0.00
2018-04-19T01:38:43.383Z,0.00
2018-04-19T01:39:43.290Z,0.00
2018-04-19T01:40:43.275Z,0.00
2018-04-19T01:41:43.253Z,0.00
2018-04-19T01:42:43.247Z,0.00
2018-04-19T01:43:43.226Z,0.00
2018-04-19T01:44:43.218Z,0.00
2018-04-19T01:45:43.206Z,0.00
2018-04-19T01:46:43.193Z,0.00
2018-04-19T01:47:43.183Z,0.00
2018-04-19T01:48:43.174Z,0.00
2018-04-19T01:49:43.157Z,0.00
2018-04-19T01:50:43.143Z,0.00
2018-04-19T01:51:43.131Z,0.00
2018-04-19T01:52:43.127Z,0.00
2018-04-19T01:53:43.111Z,0.00
2018-04-19T01:54:43.124Z,0.00
2018-04-19T01:55:43.082Z,0.00
2018-04-19T01:56:43.081Z,0.00
2018-04-19T01:57:43.069Z,0.00
2018-04-19T01:58:43.054Z,0.00
2018-04-19T01:59:43.043Z,0.00
2018-04-19T02:00:43.025Z,0.00
2018-04-19T02:01:43.015Z,0.00
2018-04-19T02:02:43.002Z,0.00
2018-04-19T02:03:42.998Z,0.00
2018-04-19T02:04:42.975Z,0.00
2018-04-19T02:05:42.965Z,0.00
2018-04-19T02:06:42.954Z,0.00
2018-04-19T02:07:42.940Z,0.00
2018-04-19T02:08:42.933Z,0.00
2018-04-19T02:09:42.913Z,0.00
2018-04-19T02:10:42.903Z,0.00
2018-04-19T02:11:42.891Z,0.00
2018-04-19T02:12:42.882Z,0.00
2018-04-19T02:13:42.862Z,0.00
2018-04-19T02:14:42.852Z,0.00
2018-04-19T02:15:42.867Z,0.00
2018-04-19T02:16:42.831Z,0.00
2018-04-19T02:17:42.813Z,0.00
2018-04-19T02:18:42.801Z,0.00
2018-04-19T02:19:42.793Z,0.00
2018-04-19T02:20:42.781Z,0.00
2018-04-19T02:21:42.777Z,0.00
2018-04-19T02:22:42.753Z,0.00
2018-04-19T02:23:42.745Z,0.00
2018-04-19T02:24:42.733Z,0.00
2018-04-19T02:25:42.719Z,0.00
2018-04-19T02:26:42.703Z,0.00
2018-04-19T02:27:42.694Z,0.00
2018-04-19T02:28:42.683Z,0.00
2018-04-19T02:29:42.669Z,0.00
2018-04-19T02:30:42.666Z,0.00
2018-04-19T02:31:42.645Z,0.00
2018-04-19T02:32:42.635Z,0.00
2018-04-19T02:33:42.620Z,0.00
2018-04-19T02:34:42.609Z,0.00
2018-04-19T02:35:42.611Z,0.00
2018-04-19T02:36:42.579Z,0.00
2018-04-19T02:37:42.582Z,0.00
2018-04-19T02:38:42.553Z,0.00
2018-04-19T02:39:42.544Z,0.00
2018-04-19T02:40:42.531Z,0.00
2018-04-19T02:41:42.524Z,0.00
2018-04-19T02:42:42.512Z,0.00
2018-04-19T02:43:42.494Z,0.00
2018-04-19T02:44:42.483Z,0.00
2018-04-19T02:45:42.471Z,0.00
2018-04-19T02:46:42.460Z,0.00
2018-04-19T02:47:42.443Z,0.00
2018-04-19T02:48:42.431Z,0.00
2018-04-19T02:49:42.424Z,0.00
2018-04-19T02:50:42.406Z,0.00
2018-04-19T02:51:42.393Z,0.00
2018-04-19T02:52:42.387Z,0.00
2018-04-19T02:53:42.368Z,0.00
2018-04-19T02:54:42.365Z,0.00
2018-04-19T02:55:42.344Z,0.00
2018-04-19T02:56:42.330Z,0.00
2018-04-19T02:57:42.323Z,0.00
2018-04-19T02:58:42.304Z,0.00
2018-04-19T02:59:42.293Z,0.00
2018-04-19T03:00:42.285Z,0.00
2018-04-19T03:01:42.268Z,0.00
2018-04-19T03:02:42.254Z,0.00
2018-04-19T03:03:42.244Z,0.00
2018-04-19T03:04:42.230Z,0.00
2018-04-19T03:05:42.224Z,0.00
2018-04-19T03:06:42.210Z,0.00
2018-04-19T03:07:42.201Z,0.00
2018-04-19T03:08:42.179Z,0.00
2018-04-19T03:09:42.176Z,0.00
2018-04-19T03:10:42.153Z,0.00
2018-04-19T03:11:42.143Z,0.00
2018-04-19T03:12:42.128Z,0.00
2018-04-19T03:13:42.115Z,0.00
2018-04-19T03:14:42.104Z,0.00
2018-04-19T03:15:42.170Z,0.00
2018-04-19T03:16:42.078Z,0.00
2018-04-19T03:17:42.213Z,0.00
2018-04-19T03:18:42.049Z,0.00
2018-04-19T03:19:42.137Z,0.00
2018-04-19T03:20:42.024Z,0.00
2018-04-19T03:21:42.110Z,0.00
2018-04-19T03:22:41.998Z,0.00
2018-04-19T03:23:42.091Z,0.00
2018-04-19T03:24:41.973Z,0.00
2018-04-19T03:25:41.970Z,0.00
2018-04-19T03:26:41.947Z,0.00
2018-04-19T03:27:42.038Z,0.00
2018-04-19T03:28:41.932Z,0.00
2018-04-19T03:29:41.911Z,0.00
2018-04-19T03:30:41.901Z,0.00
2018-04-19T03:31:41.934Z,0.00
2018-04-19T03:32:41.872Z,0.00
2018-04-19T03:33:41.909Z,0.00
2018-04-19T03:34:41.843Z,0.00
2018-04-19T03:35:41.880Z,0.00
2018-04-19T03:36:41.822Z,0.00
2018-04-19T03:37:41.804Z,0.00
2018-04-19T03:38:41.791Z,0.00
2018-04-19T03:39:41.787Z,0.00
2018-04-19T03:40:41.779Z,0.00
2018-04-19T03:41:41.752Z,0.00
2018-04-19T03:42:41.748Z,0.00
2018-04-19T03:43:41.726Z,0.00
2018-04-19T03:44:41.724Z,0.00
2018-04-19T03:45:41.699Z,0.00
2018-04-19T03:46:41.693Z,0.00
2018-04-19T03:47:41.673Z,0.00
2018-04-19T03:48:41.662Z,0.00
2018-04-19T03:49:41.652Z,0.00
2018-04-19T03:50:41.633Z,0.00
2018-04-19T03:51:41.625Z,0.00
2018-04-19T03:52:41.612Z,4.00
2018-04-19T03:53:41.596Z,4.00
2018-04-19T03:54:41.580Z,0.00
2018-04-19T03:55:41.572Z,4.00
2018-04-19T03:56:41.581Z,4.00
2018-04-19T03:57:41.545Z,4.00
2018-04-19T03:58:41.528Z,4.00
2018-04-19T03:59:41.517Z,4.00
2018-04-19T04:00:41.506Z,8.00
2018-04-19T04:01:41.493Z,8.00
2018-04-19T04:02:41.478Z,8.00
2018-04-19T04:03:41.463Z,8.00
2018-04-19T04:04:41.453Z,12.00
2018-04-19T04:05:41.440Z,12.00
2018-04-19T04:06:41.425Z,12.00
2018-04-19T04:07:41.417Z,20.00
2018-04-19T04:08:41.394Z,20.00
2018-04-19T04:09:41.383Z,24.00
2018-04-19T04:10:41.370Z,28.00
2018-04-19T04:11:41.354Z,28.00
2018-04-19T04:12:41.343Z,32.00
2018-04-19T04:13:41.330Z,40.00
2018-04-19T04:14:41.314Z,40.00
2018-04-19T04:15:41.309Z,48.00
2018-04-19T04:16:41.291Z,56.00
2018-04-19T04:17:41.276Z,64.00
2018-04-19T04:18:41.267Z,68.00
2018-04-19T04:19:41.254Z,76.00
2018-04-19T04:20:41.246Z,88.00
2018-04-19T04:21:41.225Z,96.00
2018-04-19T04:22:41.216Z,108.00
2018-04-19T04:23:41.202Z,116.00
2018-04-19T04:24:41.183Z,128.00
2018-04-19T04:25:41.174Z,140.00
2018-04-19T04:26:41.164Z,156.00
2018-04-19T04:27:41.144Z,172.00
2018-04-19T04:28:41.138Z,184.00
2018-04-19T04:29:41.121Z,200.00
2018-04-19T04:30:41.103Z,216.00
2018-04-19T04:31:41.092Z,236.00
2018-04-19T04:32:41.086Z,252.00
2018-04-19T04:33:41.062Z,272.00
2018-04-19T04:34:41.057Z,292.00
2018-04-19T04:35:41.036Z,316.00
2018-04-19T04:36:41.023Z,336.00
2018-04-19T04:37:41.014Z,356.00
2018-04-19T04:38:40.995Z,384.00
2018-04-19T04:39:40.985Z,404.00
2018-04-19T04:40:40.962Z,428.00
2018-04-19T04:41:40.953Z,456.00
2018-04-19T04:42:40.945Z,480.00
2018-04-19T04:43:40.935Z,504.00
2018-04-19T04:44:40.912Z,532.00
2018-04-19T04:45:40.902Z,556.00
2018-04-19T04:46:40.934Z,584.00
2018-04-19T04:47:40.885Z,612.00
2018-04-19T04:48:40.913Z,636.00
2018-04-19T04:49:40.842Z,668.00
2018-04-19T04:50:40.872Z,696.00
2018-04-19T04:51:40.821Z,724.00
2018-04-19T04:52:40.803Z,752.00
2018-04-19T04:53:40.794Z,780.00
2018-04-19T04:54:40.774Z,808.00
2018-04-19T04:55:40.763Z,836.00
2018-04-19T04:56:40.797Z,872.00
2018-04-19T04:57:40.733Z,904.00
2018-04-19T04:58:40.792Z,936.00
2018-04-19T04:59:40.710Z,968.00
2018-04-19T05:00:40.696Z,1000.00
2018-04-19T05:01:40.680Z,1032.00
2018-04-19T05:02:40.673Z,1060.00
2018-04-19T05:03:40.653Z,1092.00
2018-04-19T05:04:40.654Z,1124.00
2018-04-19T05:05:40.670Z,1156.00
2018-04-19T05:06:40.614Z,1188.00
2018-04-19T05:07:40.603Z,1220.00
2018-04-19T05:08:40.598Z,1252.00
2018-04-19T05:09:40.574Z,1284.00
2018-04-19T05:10:40.563Z,1316.00
2018-04-19T05:11:40.553Z,1348.00
2018-04-19T05:12:40.544Z,1368.00
2018-04-19T05:13:40.520Z,1396.00
2018-04-19T05:14:40.508Z,1432.00
2018-04-19T05:15:40.494Z,1468.00
2018-04-19T05:16:40.479Z,1500.00
2018-04-19T05:17:40.463Z,1528.00
2018-04-19T05:18:40.452Z,1560.00
2018-04-19T05:19:40.446Z,1588.00
2018-04-19T05:20:40.426Z,1616.00
2018-04-19T05:21:40.413Z,1648.00
2018-04-19T05:22:40.398Z,1684.00
2018-04-19T05:23:40.385Z,1720.00
2018-04-19T05:24:40.375Z,1752.00
2018-04-19T05:25:40.362Z,1780.00
2018-04-19T05:26:40.347Z,1812.00
2018-04-19T05:27:40.340Z,1840.00
2018-04-19T05:28:40.324Z,1868.00
2018-04-19T05:29:40.308Z,1900.00
2018-04-19T05:30:40.289Z,1928.00
2018-04-19T05:31:40.281Z,1960.00
2018-04-19T05:32:40.262Z,1988.00
2018-04-19T05:33:40.255Z,2020.00
2018-04-19T05:34:40.239Z,2052.00
2018-04-19T05:35:40.223Z,2084.00
2018-04-19T05:36:40.228Z,2108.00
2018-04-19T05:37:40.196Z,2120.00
2018-04-19T05:38:40.204Z,2160.00
2018-04-19T05:39:40.172Z,2192.00
2018-04-19T05:40:40.175Z,2232.00
2018-04-19T05:41:40.143Z,2268.00
2018-04-19T05:42:40.135Z,2324.00
2018-04-19T05:43:40.120Z,2360.00
2018-04-19T05:44:40.104Z,2396.00
2018-04-19T05:45:40.091Z,2428.00
2018-04-19T05:46:40.087Z,2460.00
2018-04-19T05:47:40.070Z,2496.00
2018-04-19T05:48:40.054Z,2532.00
2018-04-19T05:49:40.045Z,2560.00
2018-04-19T05:50:40.026Z,2596.00
2018-04-19T05:51:40.013Z,2628.00
2018-04-19T05:52:40.001Z,2660.00
2018-04-19T05:53:39.994Z,2696.00
2018-04-19T05:54:39.975Z,2724.00
2018-04-19T05:55:39.966Z,2760.00
2018-04-19T05:56:39.954Z,2792.00
2018-04-19T05:57:39.944Z,2824.00
2018-04-19T05:58:39.923Z,2856.00
2018-04-19T05:59:39.913Z,2892.00
2018-04-19T06:00:39.900Z,2928.00
2018-04-19T06:01:39.883Z,2964.00
2018-04-19T06:02:39.870Z,2996.00
2018-04-19T06:03:39.864Z,3024.00
2018-04-19T06:04:39.853Z,3056.00
2018-04-19T06:05:39.833Z,3092.00
2018-04-19T06:06:39.821Z,3124.00
2018-04-19T06:07:39.805Z,3152.00
2018-04-19T06:08:39.895Z,3184.00
2018-04-19T06:09:39.789Z,3220.00
2018-04-19T06:10:39.771Z,3252.00
2018-04-19T06:11:39.763Z,3288.00
2018-04-19T06:12:39.744Z,3324.00
2018-04-19T06:13:39.731Z,3352.00
2018-04-19T06:14:39.725Z,3396.00
2018-04-19T06:15:39.705Z,3444.00
2018-04-19T06:16:39.693Z,3472.00
2018-04-19T06:17:39.687Z,3512.00
2018-04-19T06:18:39.667Z,3544.00
2018-04-19T06:19:39.655Z,3580.00
2018-04-19T06:20:39.642Z,3620.00
2018-04-19T06:21:39.629Z,3660.00
2018-04-19T06:22:39.623Z,3700.00
2018-04-19T06:23:39.612Z,3740.00
2018-04-19T06:24:39.592Z,3776.00
2018-04-19T06:25:39.583Z,3800.00
2018-04-19T06:26:39.568Z,3836.00
2018-04-19T06:27:39.560Z,3876.00
2018-04-19T06:28:39.542Z,3916.00
2018-04-19T06:29:39.530Z,3956.00
2018-04-19T06:30:39.516Z,4000.00
2018-04-19T06:31:39.514Z,4048.00
2018-04-19T06:32:39.492Z,4092.00
2018-04-19T06:33:39.480Z,4140.00
2018-04-19T06:34:39.472Z,4188.00
2018-04-19T06:35:39.459Z,4224.00
2018-04-19T06:36:39.451Z,4268.00
2018-04-19T06:37:39.441Z,4308.00
2018-04-19T06:38:39.419Z,4348.00
2018-04-19T06:39:39.411Z,4400.00
2018-04-19T06:40:39.399Z,4452.00
2018-04-19T06:41:39.383Z,4508.00
2018-04-19T06:42:39.373Z,4560.00
2018-04-19T06:43:39.361Z,4628.00
2018-04-19T06:44:39.350Z,4692.00
2018-04-19T06:45:39.343Z,4764.00
2018-04-19T06:46:39.331Z,4840.00
2018-04-19T06:47:39.312Z,4936.00
2018-04-19T06:48:39.300Z,5044.00
2018-04-19T06:49:39.291Z,5196.00
2018-04-19T06:50:39.278Z,5408.00
2018-04-19T06:51:39.269Z,6456.00
2018-04-19T06:52:39.259Z,16288.00
2018-04-19T06:53:39.248Z,35008.00
2018-04-19T06:54:39.238Z,51008.00
2018-04-19T06:55:39.230Z,63744.00
2018-04-19T06:56:39.233Z,69440.00
2018-04-19T06:57:39.217Z,73184.00
2018-04-19T06:58:39.207Z,79776.00
2018-04-19T06:59:39.199Z,79040.00
2018-04-19T07:00:39.202Z,78784.00
2018-04-19T07:01:39.181Z,79680.00
2018-04-19T07:02:39.180Z,79616.00
2018-04-19T07:03:39.172Z,75808.00
2018-04-19T07:04:39.168Z,80736.00
2018-04-19T07:05:39.167Z,81248.00
2018-04-19T07:06:39.258Z,79296.00
2018-04-19T07:07:39.152Z,76704.00
2018-04-19T07:08:39.248Z,79008.00
2018-04-19T07:09:39.149Z,79168.00
2018-04-19T07:10:39.149Z,79552.00
2018-04-19T07:11:39.147Z,81376.00
2018-04-19T07:12:39.148Z,81504.00
2018-04-19T07:13:39.150Z,80864.00
2018-04-19T07:14:39.165Z,80512.00
2018-04-19T07:15:39.143Z,83712.00
2018-04-19T07:16:39.137Z,83872.00
2018-04-19T07:17:39.139Z,83616.00
2018-04-19T07:18:39.142Z,84384.00
2018-04-19T07:19:39.139Z,82336.00
2018-04-19T07:20:39.134Z,81472.00
2018-04-19T07:21:39.133Z,83968.00
2018-04-19T07:22:39.138Z,83296.00
2018-04-19T07:23:39.139Z,82688.00
2018-04-19T07:24:39.147Z,81952.00
2018-04-19T07:25:39.145Z,82720.00
2018-04-19T07:26:39.145Z,83424.00
2018-04-19T07:27:39.148Z,82208.00
2018-04-19T07:28:39.148Z,84608.00
2018-04-19T07:29:39.152Z,84032.00
2018-04-19T07:30:39.165Z,83264.00
2018-04-19T07:31:39.304Z,79008.00
2018-04-19T07:32:39.162Z,83488.00
2018-04-19T07:33:39.264Z,85280.00
2018-04-19T07:34:39.168Z,83840.00
2018-04-19T07:35:39.177Z,84928.00
2018-04-19T07:36:39.171Z,83840.00
2018-04-19T07:37:39.183Z,85504.00
2018-04-19T07:38:39.189Z,84352.00
2018-04-19T07:39:39.181Z,83680.00
2018-04-19T07:40:39.192Z,83104.00
2018-04-19T07:41:39.192Z,82848.00
2018-04-19T07:42:39.200Z,79552.00
2018-04-19T07:43:39.206Z,74496.00
2018-04-19T07:44:39.215Z,76160.00
2018-04-19T07:45:39.209Z,80544.00
2018-04-19T07:46:39.220Z,86208.00
2018-04-19T07:47:39.224Z,84544.00
2018-04-19T07:48:39.230Z,83456.00
2018-04-19T07:49:39.233Z,84608.00
2018-04-19T07:50:39.238Z,84480.00
2018-04-19T07:51:39.241Z,80672.00
2018-04-19T07:52:39.250Z,82496.00
2018-04-19T07:53:39.259Z,85056.00
2018-04-19T07:54:39.263Z,85376.00
2018-04-19T07:55:39.266Z,84320.00
2018-04-19T07:56:39.280Z,83200.00
2018-04-19T07:57:39.290Z,82912.00
2018-04-19T07:58:39.284Z,83168.00
2018-04-19T07:59:39.289Z,82304.00
2018-04-19T08:00:39.309Z,83392.00
2018-04-19T08:01:39.301Z,84064.00
2018-04-19T08:02:39.313Z,83744.00
2018-04-19T08:03:39.314Z,80704.00
2018-04-19T08:04:39.331Z,78624.00
2018-04-19T08:05:39.329Z,81664.00
2018-04-19T08:06:39.339Z,85856.00
2018-04-19T08:07:39.347Z,85920.00
2018-04-19T08:08:39.352Z,82592.00
2018-04-19T08:09:39.362Z,76224.00
2018-04-19T08:10:39.363Z,79104.00
2018-04-19T08:11:39.373Z,83328.00
2018-04-19T08:12:39.381Z,82592.00
2018-04-19T08:13:39.390Z,82112.00
2018-04-19T08:14:39.392Z,81856.00
2018-04-19T08:15:39.441Z,78624.00
2018-04-19T08:16:39.414Z,75648.00
2018-04-19T08:17:39.423Z,77088.00
2018-04-19T08:18:39.424Z,80992.00
2018-04-19T08:19:39.434Z,81056.00
2018-04-19T08:20:39.440Z,81536.00
2018-04-19T08:21:39.444Z,81888.00
2018-04-19T08:22:39.463Z,82432.00
2018-04-19T08:23:39.471Z,81632.00
2018-04-19T08:24:39.474Z,80768.00
2018-04-19T08:25:39.486Z,78656.00
2018-04-19T08:26:39.496Z,78688.00
2018-04-19T08:27:39.497Z,79136.00
2018-04-19T08:28:39.518Z,76640.00
2018-04-19T08:29:39.511Z,77088.00
2018-04-19T08:30:39.528Z,72128.00
2018-04-19T08:31:39.535Z,74816.00
2018-04-19T08:32:39.584Z,77248.00
2018-04-19T08:33:39.545Z,77664.00
2018-04-19T08:34:39.556Z,78336.00
2018-04-19T08:35:39.562Z,76096.00
2018-04-19T08:36:39.571Z,74912.00
2018-04-19T08:37:39.578Z,73920.00
2018-04-19T08:38:39.590Z,76448.00
2018-04-19T08:39:39.596Z,78560.00
2018-04-19T08:40:39.604Z,73184.00
2018-04-19T08:41:39.614Z,70496.00
2018-04-19T08:42:39.625Z,76992.00
2018-04-19T08:43:39.635Z,81184.00
2018-04-19T08:44:39.693Z,84448.00
2018-04-19T08:45:39.786Z,88000.00
2018-04-19T08:46:39.656Z,81248.00
2018-04-19T08:47:39.772Z,85184.00
2018-04-19T08:48:39.676Z,85216.00
2018-04-19T08:49:39.679Z,80672.00
2018-04-19T08:50:39.686Z,81056.00
2018-04-19T08:51:39.695Z,82176.00
2018-04-19T08:52:39.719Z,78176.00
2018-04-19T08:53:39.715Z,76032.00
2018-04-19T08:54:39.726Z,74784.00
2018-04-19T08:55:39.741Z,74592.00
2018-04-19T08:56:39.734Z,74720.00
2018-04-19T08:57:39.760Z,77728.00
2018-04-19T08:58:39.762Z,74272.00
2018-04-19T08:59:39.766Z,64896.00
2018-04-19T09:00:39.777Z,67712.00
2018-04-19T09:01:39.777Z,75264.00
2018-04-19T09:02:39.788Z,64928.00
2018-04-19T09:03:39.799Z,67872.00
2018-04-19T09:04:39.809Z,74976.00
2018-04-19T09:05:39.819Z,77408.00
2018-04-19T09:06:39.818Z,73728.00
2018-04-19T09:07:39.842Z,69376.00
2018-04-19T09:08:39.857Z,69440.00
2018-04-19T09:09:39.834Z,74272.00
2018-04-19T09:10:39.895Z,68576.00
2018-04-19T09:11:39.861Z,58752.00
2018-04-19T09:12:39.857Z,60256.00
2018-04-19T09:13:39.867Z,51904.00
2018-04-19T09:14:39.867Z,49344.00
2018-04-19T09:15:39.875Z,48704.00
2018-04-19T09:16:39.885Z,40704.00
2018-04-19T09:17:39.885Z,36544.00
2018-04-19T09:18:39.896Z,35104.00
2018-04-19T09:19:39.900Z,32928.00
2018-04-19T09:20:39.908Z,30016.00
2018-04-19T09:21:39.912Z,29376.00
2018-04-19T09:22:39.919Z,27488.00
2018-04-19T09:23:39.918Z,26400.00
2018-04-19T09:24:39.932Z,24832.00
2018-04-19T09:25:40.031Z,23232.00
2018-04-19T09:26:39.937Z,22400.00
2018-04-19T09:27:39.976Z,21632.00
2018-04-19T09:28:39.947Z,21056.00
2018-04-19T09:29:39.997Z,19392.00
2018-04-19T09:30:39.958Z,15936.00
2018-04-19T09:31:39.958Z,14160.00
2018-04-19T09:32:39.956Z,13756.00
2018-04-19T09:33:39.961Z,13996.00
2018-04-19T09:34:39.978Z,13924.00
2018-04-19T09:35:39.966Z,13628.00
2018-04-19T09:36:39.979Z,13116.00
2018-04-19T09:37:39.978Z,13128.00
2018-04-19T09:38:39.979Z,13100.00
2018-04-19T09:39:39.980Z,12944.00
2018-04-19T09:40:39.983Z,12624.00
2018-04-19T09:41:39.992Z,12492.00
2018-04-19T09:42:39.993Z,12520.00
2018-04-19T09:43:39.995Z,12532.00
2018-04-19T09:44:39.995Z,12372.00
2018-04-19T09:45:39.997Z,12460.00
2018-04-19T09:46:40.075Z,12748.00
2018-04-19T09:47:40.013Z,12580.00
2018-04-19T09:48:40.013Z,12352.00
2018-04-19T09:49:40.013Z,12212.00
2018-04-19T09:50:40.109Z,12120.00
2018-04-19T09:51:40.008Z,12088.00
2018-04-19T09:52:40.007Z,11868.00
2018-04-19T09:53:40.007Z,11616.00
2018-04-19T09:54:40.006Z,11432.00
2018-04-19T09:55:40.016Z,11216.00
2018-04-19T09:56:40.018Z,10932.00
2018-04-19T09:57:40.012Z,10888.00
2018-04-19T09:58:40.010Z,10872.00
2018-04-19T09:59:40.013Z,10784.00
2018-04-19T10:00:40.015Z,10736.00
2018-04-19T10:01:40.020Z,10720.00
2018-04-19T10:02:40.014Z,10716.00
2018-04-19T10:03:40.016Z,10716.00
2018-04-19T10:04:40.013Z,10760.00
2018-04-19T10:05:40.014Z,10720.00
2018-04-19T10:06:40.012Z,10556.00
2018-04-19T10:07:40.016Z,10704.00
2018-04-19T10:08:40.015Z,10612.00
2018-04-19T10:09:40.017Z,10564.00
2018-04-19T10:10:40.045Z,10480.00
2018-04-19T10:11:40.107Z,10476.00
2018-04-19T10:12:40.010Z,10380.00
2018-04-19T10:13:40.006Z,10324.00
2018-04-19T10:14:40.007Z,10240.00
2018-04-19T10:15:40.055Z,10200.00
2018-04-19T10:16:40.008Z,10108.00
2018-04-19T10:17:40.056Z,10116.00
2018-04-19T10:18:40.005Z,10096.00
2018-04-19T10:19:40.005Z,10060.00
2018-04-19T10:20:40.001Z,10012.00
2018-04-19T10:21:40.005Z,9980.00
2018-04-19T10:22:39.994Z,9872.00
2018-04-19T10:23:39.995Z,9884.00
2018-04-19T10:24:39.996Z,9836.00
2018-04-19T10:25:39.996Z,9784.00
2018-04-19T10:26:40.042Z,9764.00
2018-04-19T10:27:40.001Z,9748.00
2018-04-19T10:28:39.994Z,9648.00
2018-04-19T10:29:39.983Z,9740.00
2018-04-19T10:30:39.984Z,9736.00
2018-04-19T10:31:40.002Z,9748.00
2018-04-19T10:32:39.987Z,8992.00
2018-04-19T10:33:39.977Z,9732.00
2018-04-19T10:34:39.991Z,9768.00
2018-04-19T10:35:39.986Z,9724.00
2018-04-19T10:36:39.977Z,9728.00
2018-04-19T10:37:39.976Z,9680.00
2018-04-19T10:38:40.065Z,9704.00
2018-04-19T10:39:39.969Z,9704.00
2018-04-19T10:40:40.005Z,9700.00
2018-04-19T10:41:39.971Z,9672.00
2018-04-19T10:42:39.962Z,9768.00
2018-04-19T10:43:39.958Z,9736.00
2018-04-19T10:44:39.963Z,9740.00
2018-04-19T10:45:39.956Z,9748.00
2018-04-19T10:46:39.953Z,9696.00
2018-04-19T10:47:39.953Z,9664.00
2018-04-19T10:48:39.953Z,9736.00
2018-04-19T10:49:39.952Z,9776.00
2018-04-19T10:50:39.943Z,9780.00
2018-04-19T10:51:39.943Z,9740.00
2018-04-19T10:52:39.947Z,9820.00
2018-04-19T10:53:39.940Z,9852.00
2018-04-19T10:54:39.939Z,9856.00
2018-04-19T10:55:39.935Z,9888.00
2018-04-19T10:56:39.936Z,9864.00
2018-04-19T10:57:39.934Z,9824.00
2018-04-19T10:58:39.939Z,9820.00
2018-04-19T10:59:39.932Z,9820.00
2018-04-19T11:00:39.926Z,9776.00
2018-04-19T11:01:39.939Z,9748.00
2018-04-19T11:02:39.922Z,9736.00
2018-04-19T11:03:39.925Z,9732.00
2018-04-19T11:04:39.915Z,9680.00
2018-04-19T11:05:39.919Z,9712.00
2018-04-19T11:06:39.912Z,9748.00
2018-04-19T11:07:40.011Z,9724.00
2018-04-19T11:08:39.941Z,9764.00
2018-04-19T11:09:39.961Z,9484.00
2018-04-19T11:10:39.905Z,8800.00
2018-04-19T11:11:39.914Z,9476.00
2018-04-19T11:12:39.902Z,9532.00
2018-04-19T11:13:39.951Z,9584.00
2018-04-19T11:14:39.894Z,9600.00
2018-04-19T11:15:39.895Z,9712.00
2018-04-19T11:16:39.902Z,9712.00
2018-04-19T11:17:39.889Z,9740.00
2018-04-19T11:18:39.897Z,9728.00
2018-04-19T11:19:39.893Z,9832.00
2018-04-19T11:20:39.884Z,9736.00
2018-04-19T11:21:39.882Z,9788.00
2018-04-19T11:22:39.886Z,9676.00
2018-04-19T11:23:39.881Z,9820.00
2018-04-19T11:24:39.883Z,9880.00
2018-04-19T11:25:39.880Z,9880.00
2018-04-19T11:26:39.873Z,9988.00
2018-04-19T11:27:39.872Z,9788.00
2018-04-19T11:28:39.880Z,9700.00
2018-04-19T11:29:39.881Z,9636.00
2018-04-19T11:30:39.864Z,9756.00
2018-04-19T11:31:39.862Z,9544.00
2018-04-19T11:32:39.863Z,9548.00
2018-04-19T11:33:39.863Z,9640.00
2018-04-19T11:34:39.971Z,9612.00
2018-04-19T11:35:39.858Z,9356.00
2018-04-19T11:36:39.883Z,9116.00
2018-04-19T11:37:39.854Z,9704.00
2018-04-19T11:38:39.946Z,9228.00
2018-04-19T11:39:39.843Z,8748.00
2018-04-19T11:40:39.848Z,8140.00
2018-04-19T11:41:39.847Z,8412.00
2018-04-19T11:42:39.889Z,7820.00
2018-04-19T11:43:39.845Z,8256.00
2018-04-19T11:44:39.834Z,8312.00
2018-04-19T11:45:39.832Z,8284.00
2018-04-19T11:46:39.832Z,8876.00
2018-04-19T11:47:39.828Z,8020.00
2018-04-19T11:48:39.826Z,8084.00
2018-04-19T11:49:39.825Z,8324.00
2018-04-19T11:50:39.822Z,8680.00
2018-04-19T11:51:39.821Z,9044.00
2018-04-19T11:52:39.811Z,9248.00
2018-04-19T11:53:39.812Z,8856.00
2018-04-19T11:54:39.809Z,9056.00
2018-04-19T11:55:39.812Z,8960.00
2018-04-19T11:56:39.803Z,9312.00
2018-04-19T11:57:39.799Z,9332.00
2018-04-19T11:58:39.800Z,9376.00
2018-04-19T11:59:39.804Z,9588.00
2018-04-19T12:00:39.802Z,9732.00
2018-04-19T12:01:39.813Z,9752.00
2018-04-19T12:02:39.798Z,9776.00
2018-04-19T12:03:39.794Z,9808.00
2018-04-19T12:04:39.786Z,9876.00
2018-04-19T12:05:39.881Z,9836.00
2018-04-19T12:06:39.781Z,9772.00
2018-04-19T12:07:39.845Z,9656.00
2018-04-19T12:08:39.774Z,9744.00
2018-04-19T12:09:39.772Z,9804.00
2018-04-19T12:10:39.779Z,9952.00
2018-04-19T12:11:39.768Z,10380.00
2018-04-19T12:12:39.766Z,9612.00
2018-04-19T12:13:39.775Z,10096.00
2018-04-19T12:14:39.761Z,10084.00
2018-04-19T12:15:39.770Z,9920.00
2018-04-19T12:16:39.756Z,9828.00
2018-04-19T12:17:39.765Z,9164.00
2018-04-19T12:18:39.755Z,8364.00
2018-04-19T12:19:39.754Z,8304.00
2018-04-19T12:20:39.750Z,7256.00
2018-04-19T12:21:39.776Z,7320.00
2018-04-19T12:22:39.746Z,8280.00
2018-04-19T12:23:39.743Z,9396.00